This is the latest recevied weather packets stored in our database for station/object AE6DC-5. If no packets are shown the sender has not sent any weather packets the latest 10 day(s).
| Time | Temp. | Humidity | Pressure | Rain* | Wind** | Luminosity | Snow |
|---|---|---|---|---|---|---|---|
| 1777337299 | 13.33° C | 78% | 1018 hPa | 0 mm | - | 342 W/m² | - |
| 1777332617 | 13.33° C | 78% | 1017.7 hPa | 0 mm | - | 454 W/m² | - |
| 1777332257 | 13.33° C | 78% | 1017.3 hPa | 0 mm | - | 711 W/m² | - |
| 1777330824 | 13.33° C | 77% | 1017.7 hPa | 0 mm | - | 704 W/m² | - |
| 1777330464 | 13.33° C | 77% | 1017.7 hPa | 0 mm | - | 725 W/m² | - |
| 1777330105 | 12.78° C | 77% | 1018 hPa | 0 mm | - | 541 W/m² | - |
| 1777329018 | 12.78° C | 77% | 1018.4 hPa | 0 mm | - | 587 W/m² | - |
| 1777326499 | 12.78° C | 77% | 1017.8 hPa | 0 mm | - | 870 W/m² | - |
| 1777324720 | 12.78° C | 78% | 1017.7 hPa | 0 mm | - | 918 W/m² | - |
| 1777321458 | 12.78° C | 78% | 1017.4 hPa | 0 mm | - | 949 W/m² | - |
| 1777317499 | 12.78° C | 76% | 1017.5 hPa | 0 mm | - | 934 W/m² | - |
| 1777316059 | 12.78° C | 77% | 1017.4 hPa | 0 mm | - | 907 W/m² | - |
| 1777314260 | 12.78° C | 79% | 1017 hPa | 0 mm | - | 868 W/m² | - |
| 1777312817 | 12.78° C | 79% | 1017.2 hPa | 0 mm | - | 500 W/m² | - |
| 1777311741 | 12.78° C | 78% | 1017.4 hPa | 0 mm | - | 362 W/m² | - |
| 1777311021 | 12.78° C | 78% | 1017.1 hPa | 0 mm | - | 380 W/m² | - |
| 1777309581 | 12.78° C | 77% | 1016.7 hPa | 0 mm | - | 700 W/m² | - |
| 1777308871 | 12.22° C | 76% | 1016.8 hPa | 0 mm | - | 662 W/m² | - |
| 1777304180 | 12.22° C | 77% | 1016.7 hPa | 0 mm | - | 356 W/m² | - |
| 1777303137 | 12.22° C | 77% | 1016.6 hPa | 0 mm | - | 313 W/m² | - |
| 1777302737 | 12.78° C | 77% | 1016.7 hPa | 0 mm | - | 264 W/m² | - |
| 1777300938 | 12.78° C | 78% | 1016.5 hPa | 0 mm | - | 128 W/m² | - |
| 1777299858 | 12.78° C | 78% | 1016.2 hPa | 0 mm | - | 146 W/m² | - |
| 1777297699 | 12.22° C | 79% | 1016.1 hPa | 0 mm | - | 29 W/m² | - |
| 1777294463 | 12.22° C | 80% | 1015.8 hPa | 0 mm | - | 0 W/m² | - |
* Rain latest hour (hover to see other rain measurements)
** Current wind speed in m/s (hover to see current wind gust speed)